createdAt,value
2019-05-13T00:01:00.785Z,7.21
2019-05-13T00:02:04.317Z,7.16
2019-05-13T00:03:03.896Z,7.11
2019-05-13T00:04:04.861Z,7.18
2019-05-13T00:05:06.260Z,7.14
2019-05-13T00:06:07.642Z,7.23
2019-05-13T00:07:09.030Z,7.21
2019-05-13T00:08:10.415Z,7.24
2019-05-13T00:09:13.936Z,7.24
2019-05-13T00:10:14.621Z,7.08
2019-05-13T00:11:14.507Z,7.16
2019-05-13T00:12:15.891Z,7.14
2019-05-13T00:13:17.284Z,7.16
2019-05-13T00:14:18.668Z,7.16
2019-05-13T00:15:20.049Z,7.15
2019-05-13T00:16:23.363Z,7.11
2019-05-13T00:17:23.719Z,7.08
2019-05-13T00:18:24.130Z,7.00
2019-05-13T00:19:25.512Z,7.05
2019-05-13T00:20:26.899Z,7.12
2019-05-13T00:21:28.278Z,7.09
2019-05-13T00:22:29.668Z,7.08
2019-05-13T00:23:31.051Z,7.09
2019-05-13T00:24:33.876Z,7.12
2019-05-13T00:25:34.105Z,7.05
2019-05-13T00:26:35.123Z,7.14
2019-05-13T00:27:36.514Z,7.08
2019-05-13T00:28:37.904Z,7.05
2019-05-13T00:29:39.284Z,7.07
2019-05-13T00:30:40.676Z,7.15
2019-05-13T00:31:43.695Z,7.08
2019-05-13T00:32:44.654Z,7.08
2019-05-13T00:33:44.758Z,7.04
2019-05-13T00:34:46.151Z,7.05
2019-05-13T00:35:47.532Z,7.04
2019-05-13T00:36:48.933Z,7.04
2019-05-13T00:37:50.315Z,7.07
2019-05-13T00:38:53.290Z,7.05
2019-05-13T00:39:54.292Z,7.01
2019-05-13T00:40:54.713Z,7.05
2019-05-13T00:41:55.755Z,7.07
2019-05-13T00:42:57.143Z,7.11
2019-05-13T00:43:58.539Z,7.00
2019-05-13T00:44:59.915Z,6.94
2019-05-13T00:46:03.694Z,6.96
2019-05-13T00:47:04.338Z,6.96
2019-05-13T00:48:04.626Z,6.93
2019-05-13T00:49:05.357Z,6.97
2019-05-13T00:50:06.737Z,6.91
2019-05-13T00:51:08.130Z,6.83
2019-05-13T00:52:09.524Z,6.78
2019-05-13T00:53:13.203Z,6.82
2019-05-13T00:54:13.328Z,6.89
2019-05-13T00:55:14.757Z,6.87
2019-05-13T00:56:14.956Z,6.87
2019-05-13T00:57:16.357Z,6.94
2019-05-13T00:58:17.746Z,6.81
2019-05-13T00:59:19.137Z,6.82
2019-05-13T01:00:20.517Z,6.79
2019-05-13T01:01:24.215Z,6.83
2019-05-13T01:02:24.305Z,6.86
2019-05-13T01:03:27.839Z,6.82
2019-05-13T01:04:25.955Z,6.79
2019-05-13T01:05:27.341Z,6.83
2019-05-13T01:06:28.737Z,6.90
2019-05-13T01:07:30.125Z,6.81
2019-05-13T01:08:33.684Z,6.91
2019-05-13T01:09:34.269Z,6.89
2019-05-13T01:10:34.664Z,6.78
2019-05-13T01:11:35.550Z,6.87
2019-05-13T01:12:36.939Z,6.82
2019-05-13T01:13:38.313Z,6.81
2019-05-13T01:14:39.708Z,6.87
2019-05-13T01:15:41.088Z,6.83
2019-05-13T01:16:44.098Z,6.83
2019-05-13T01:17:44.821Z,6.86
2019-05-13T01:18:45.216Z,6.82
2019-05-13T01:19:46.594Z,6.82
2019-05-13T01:20:47.982Z,6.76
2019-05-13T01:21:49.373Z,6.79
2019-05-13T01:22:50.762Z,6.79
2019-05-13T01:23:54.199Z,6.78
2019-05-13T01:24:54.196Z,6.78
2019-05-13T01:25:54.844Z,6.68
2019-05-13T01:26:56.234Z,6.75
2019-05-13T01:27:57.623Z,6.72
2019-05-13T01:28:59.003Z,6.71
2019-05-13T01:30:00.383Z,6.71
2019-05-13T01:31:03.943Z,6.69
2019-05-13T01:32:04.551Z,6.71
2019-05-13T01:33:04.655Z,6.69
2019-05-13T01:34:05.807Z,6.72
2019-05-13T01:35:07.197Z,6.64
2019-05-13T01:36:08.581Z,6.64
2019-05-13T01:37:09.965Z,6.72
2019-05-13T01:38:13.353Z,6.69
2019-05-13T01:39:13.938Z,6.68
2019-05-13T01:40:14.043Z,6.63
2019-05-13T01:41:15.434Z,6.57
2019-05-13T01:42:16.813Z,6.58
2019-05-13T01:43:18.189Z,6.57
2019-05-13T01:44:19.573Z,6.55
2019-05-13T01:45:20.964Z,6.53
2019-05-13T01:46:24.093Z,6.45
2019-05-13T01:47:24.197Z,6.50
2019-05-13T01:48:25.034Z,6.42
2019-05-13T01:49:26.429Z,6.42
2019-05-13T01:50:27.810Z,6.43
2019-05-13T01:51:29.208Z,6.51
2019-05-13T01:52:30.588Z,6.43
2019-05-13T01:53:33.449Z,6.51
2019-05-13T01:54:33.849Z,6.45
2019-05-13T01:55:34.666Z,6.40
2019-05-13T01:56:36.046Z,6.40
2019-05-13T01:57:37.430Z,6.38
2019-05-13T01:58:38.821Z,6.39
2019-05-13T01:59:40.207Z,6.40
2019-05-13T02:00:44.002Z,6.45
2019-05-13T02:01:44.200Z,6.40
2019-05-13T02:02:44.478Z,6.38
2019-05-13T02:03:45.656Z,6.48
2019-05-13T02:04:47.053Z,6.36
2019-05-13T02:05:48.443Z,6.38
2019-05-13T02:06:49.840Z,6.40
2019-05-13T02:07:59.661Z,6.32
2019-05-13T02:08:54.322Z,6.32
2019-05-13T02:09:53.939Z,6.30
2019-05-13T02:10:55.356Z,6.30
2019-05-13T02:11:56.716Z,6.35
2019-05-13T02:12:58.099Z,6.24
2019-05-13T02:13:59.505Z,6.28
2019-05-13T02:15:00.876Z,6.24
2019-05-13T02:16:03.926Z,6.27
2019-05-13T02:17:04.161Z,6.32
2019-05-13T02:18:04.989Z,6.27
2019-05-13T02:19:06.365Z,6.32
2019-05-13T02:20:07.749Z,6.21
2019-05-13T02:21:09.148Z,6.30
2019-05-13T02:22:10.515Z,6.32
2019-05-13T02:23:14.350Z,6.28
2019-05-13T02:24:14.485Z,6.21
2019-05-13T02:25:14.598Z,6.28
2019-05-13T02:26:15.983Z,6.30
2019-05-13T02:27:17.365Z,6.32
2019-05-13T02:28:18.743Z,6.28
2019-05-13T02:29:20.140Z,6.25
2019-05-13T02:30:21.536Z,6.25
2019-05-13T02:31:31.997Z,6.24
2019-05-13T02:32:24.307Z,6.20
2019-05-13T02:33:25.685Z,6.20
2019-05-13T02:34:27.091Z,6.25
2019-05-13T02:35:28.470Z,6.14
2019-05-13T02:36:32.662Z,6.19
2019-05-13T02:37:34.076Z,6.24
2019-05-13T02:38:35.428Z,6.21
2019-05-13T02:39:33.902Z,6.21
2019-05-13T02:40:35.287Z,6.32
2019-05-13T02:41:36.674Z,6.20
2019-05-13T02:42:38.055Z,6.20
2019-05-13T02:43:42.167Z,6.20
2019-05-13T02:44:43.490Z,6.24
2019-05-13T02:45:42.902Z,6.19
2019-05-13T02:46:44.237Z,6.11
2019-05-13T02:47:44.818Z,6.14
2019-05-13T02:48:46.202Z,6.25
2019-05-13T02:49:47.585Z,6.14
2019-05-13T02:50:52.552Z,6.16
2019-05-13T02:51:54.299Z,6.16
2019-05-13T02:52:53.140Z,6.13
2019-05-13T02:53:53.009Z,6.16
2019-05-13T02:54:54.389Z,6.16
2019-05-13T02:55:55.772Z,6.14
2019-05-13T02:56:57.154Z,6.10
2019-05-13T02:57:58.532Z,6.10
2019-05-13T02:59:03.422Z,6.13
2019-05-13T03:00:04.090Z,6.16
2019-05-13T03:01:03.063Z,6.06
2019-05-13T03:02:04.330Z,6.17
2019-05-13T03:03:05.343Z,6.08
2019-05-13T03:04:06.718Z,5.98
2019-05-13T03:05:08.100Z,6.11
2019-05-13T03:06:09.502Z,6.06
2019-05-13T03:07:12.032Z,5.98
2019-05-13T03:08:12.639Z,5.98
2019-05-13T03:09:13.644Z,6.10
2019-05-13T03:10:15.035Z,5.96
2019-05-13T03:11:16.425Z,6.03
2019-05-13T03:12:17.813Z,6.01
2019-05-13T03:13:19.208Z,6.01
2019-05-13T03:14:23.532Z,6.10
2019-05-13T03:15:23.138Z,6.05
2019-05-13T03:16:23.403Z,6.06
2019-05-13T03:17:24.657Z,5.95
2019-05-13T03:18:26.101Z,6.06
2019-05-13T03:19:27.446Z,6.17
2019-05-13T03:20:28.849Z,6.03
2019-05-13T03:21:32.635Z,6.14
2019-05-13T03:22:32.641Z,6.10
2019-05-13T03:23:33.168Z,6.03
2019-05-13T03:24:34.298Z,6.10
2019-05-13T03:25:35.679Z,5.93
2019-05-13T03:26:37.072Z,5.96
2019-05-13T03:27:38.459Z,6.08
2019-05-13T03:28:43.073Z,5.93
2019-05-13T03:29:43.266Z,5.98
2019-05-13T03:30:45.855Z,6.13
2019-05-13T03:31:46.171Z,5.98
2019-05-13T03:32:53.029Z,6.03
2019-05-13T03:33:47.725Z,6.10
2019-05-13T03:34:47.977Z,6.10
2019-05-13T03:35:54.923Z,6.11
2019-05-13T03:36:55.905Z,5.96
2019-05-13T03:37:52.797Z,6.02
2019-05-13T03:39:04.580Z,5.96
2019-05-13T03:39:54.944Z,5.99
2019-05-13T03:40:56.343Z,6.05
2019-05-13T03:41:57.728Z,5.99
2019-05-13T03:43:02.317Z,5.99
2019-05-13T03:44:02.563Z,6.11
2019-05-13T03:45:03.067Z,5.98
2019-05-13T03:46:03.447Z,6.06
2019-05-13T03:47:04.560Z,6.13
2019-05-13T03:48:05.938Z,6.14
2019-05-13T03:49:07.328Z,6.17
2019-05-13T03:50:08.725Z,6.16
2019-05-13T03:51:12.936Z,6.25
2019-05-13T03:52:13.486Z,6.27
2019-05-13T03:53:13.198Z,6.28
2019-05-13T03:54:14.197Z,6.30
2019-05-13T03:55:15.600Z,6.40
2019-05-13T03:56:16.990Z,6.38
2019-05-13T03:57:18.381Z,6.38
2019-05-13T03:58:23.466Z,6.45
2019-05-13T03:59:22.479Z,6.53
2019-05-13T04:00:23.542Z,6.53
2019-05-13T04:01:23.886Z,6.65
2019-05-13T04:02:25.283Z,6.65
2019-05-13T04:03:26.664Z,6.75
2019-05-13T04:04:28.053Z,6.81
2019-05-13T04:05:33.092Z,6.79
2019-05-13T04:06:32.374Z,6.81
2019-05-13T04:07:32.590Z,6.89
2019-05-13T04:08:33.512Z,6.93
2019-05-13T04:09:36.328Z,7.00
2019-05-13T04:10:36.257Z,7.12
2019-05-13T04:11:37.654Z,7.04
2019-05-13T04:12:42.217Z,7.08
2019-05-13T04:13:42.987Z,7.18
2019-05-13T04:14:42.386Z,7.19
2019-05-13T04:15:43.117Z,7.23
2019-05-13T04:16:44.498Z,7.19
2019-05-13T04:17:45.903Z,7.33
2019-05-13T04:18:47.289Z,7.34
2019-05-13T04:19:48.678Z,7.30
2019-05-13T04:20:52.730Z,7.45
2019-05-13T04:21:52.892Z,7.50
2019-05-13T04:22:53.221Z,7.45
2019-05-13T04:23:54.155Z,7.63
2019-05-13T04:24:55.563Z,7.60
2019-05-13T04:25:56.959Z,7.73
2019-05-13T04:26:58.371Z,7.74
2019-05-13T04:28:02.868Z,7.82
2019-05-13T04:29:03.173Z,7.91
2019-05-13T04:30:03.463Z,8.00
2019-05-13T04:31:04.001Z,8.03
2019-05-13T04:32:05.167Z,7.99
2019-05-13T04:33:06.557Z,8.04
2019-05-13T04:34:07.952Z,8.13
2019-05-13T04:35:12.216Z,8.12
2019-05-13T04:36:13.399Z,8.12
2019-05-13T04:37:13.260Z,8.13
2019-05-13T04:38:13.449Z,8.21
2019-05-13T04:39:14.757Z,8.24
2019-05-13T04:40:16.201Z,8.34
2019-05-13T04:41:17.495Z,8.34
2019-05-13T04:42:18.894Z,8.47
2019-05-13T04:43:23.238Z,8.54
2019-05-13T04:44:24.068Z,8.57
2019-05-13T04:45:24.088Z,8.60
2019-05-13T04:46:24.353Z,8.68
2019-05-13T04:47:25.743Z,8.73
2019-05-13T04:48:27.136Z,8.71
2019-05-13T04:49:28.527Z,8.85
2019-05-13T04:50:32.690Z,8.88
2019-05-13T04:51:32.908Z,8.96
2019-05-13T04:52:33.107Z,8.96
2019-05-13T04:53:34.010Z,8.96
2019-05-13T04:54:35.403Z,8.91
2019-05-13T04:55:36.806Z,8.94
2019-05-13T04:56:38.190Z,8.97
2019-05-13T04:57:42.207Z,8.98
2019-05-13T04:58:42.888Z,9.01
2019-05-13T04:59:44.538Z,9.08
2019-05-13T05:00:49.983Z,9.08
2019-05-13T05:01:48.893Z,9.12
2019-05-13T05:02:50.143Z,9.23
2019-05-13T05:03:47.729Z,9.22
2019-05-13T05:04:52.227Z,9.26
2019-05-13T05:05:52.647Z,9.32
2019-05-13T05:06:52.706Z,9.35
2019-05-13T05:07:53.197Z,9.38
2019-05-13T05:08:54.590Z,9.41
2019-05-13T05:10:16.891Z,9.45
2019-05-13T05:10:57.580Z,9.32
2019-05-13T05:12:01.892Z,9.49
2019-05-13T05:13:02.295Z,9.38
2019-05-13T05:14:02.747Z,9.40
2019-05-13T05:15:03.123Z,9.30
2019-05-13T05:16:04.490Z,9.41
2019-05-13T05:17:05.879Z,9.50
2019-05-13T05:18:07.258Z,9.50
2019-05-13T05:19:08.669Z,9.49
2019-05-13T05:20:11.985Z,9.52
2019-05-13T05:21:11.940Z,9.53
2019-05-13T05:22:13.444Z,9.56
2019-05-13T05:23:14.163Z,9.56
2019-05-13T05:24:15.600Z,9.58
2019-05-13T05:25:17.014Z,9.59
2019-05-13T05:26:18.437Z,9.59
2019-05-13T05:27:21.369Z,9.62
2019-05-13T05:28:21.780Z,9.62
2019-05-13T05:29:22.593Z,9.73
2019-05-13T05:30:23.988Z,9.74
2019-05-13T05:31:25.380Z,9.73
2019-05-13T05:32:26.801Z,9.81
2019-05-13T05:33:28.201Z,9.83
2019-05-13T05:34:31.696Z,9.81
2019-05-13T05:35:32.348Z,9.86
2019-05-13T05:36:32.326Z,9.88
2019-05-13T05:37:33.726Z,9.95
2019-05-13T05:38:35.120Z,9.93
2019-05-13T05:39:36.555Z,10.06
2019-05-13T05:40:37.963Z,9.99
2019-05-13T05:41:39.380Z,10.11
2019-05-13T05:42:41.233Z,10.07
2019-05-13T05:43:45.170Z,10.22
2019-05-13T05:44:43.582Z,10.20
2019-05-13T05:45:44.990Z,10.29
2019-05-13T05:46:46.375Z,10.34
2019-05-13T05:47:51.010Z,10.36
2019-05-13T05:48:50.729Z,10.49
2019-05-13T05:49:51.586Z,10.62
2019-05-13T05:50:52.684Z,10.81
2019-05-13T05:51:54.092Z,10.94
2019-05-13T05:52:55.488Z,10.94
2019-05-13T05:53:56.884Z,10.94
2019-05-13T05:54:58.284Z,10.99
2019-05-13T05:56:02.136Z,11.02
2019-05-13T05:57:01.226Z,10.95
2019-05-13T05:58:02.463Z,11.02
2019-05-13T05:59:03.938Z,10.95
2019-05-13T06:00:05.328Z,10.93
2019-05-13T06:01:06.731Z,11.01
2019-05-13T06:02:08.215Z,11.13
2019-05-13T06:03:13.548Z,11.09
2019-05-13T06:04:12.658Z,11.26
2019-05-13T06:05:12.624Z,11.41
2019-05-13T06:06:13.741Z,11.49
2019-05-13T06:07:15.134Z,11.87
2019-05-13T06:08:17.870Z,12.07
2019-05-13T06:09:17.896Z,12.26
2019-05-13T06:10:19.350Z,12.52
2019-05-13T06:11:22.299Z,12.55
2019-05-13T06:12:22.089Z,12.67
2019-05-13T06:13:23.490Z,12.73
2019-05-13T06:14:24.893Z,12.63
2019-05-13T06:15:26.281Z,12.76
2019-05-13T06:16:27.687Z,13.07
2019-05-13T06:17:29.075Z,13.88
2019-05-13T06:18:32.032Z,14.85
2019-05-13T06:19:32.122Z,15.80
2019-05-13T06:20:33.207Z,16.08
2019-05-13T06:21:34.637Z,16.55
2019-05-13T06:22:36.039Z,17.32
2019-05-13T06:23:37.447Z,18.21
2019-05-13T06:24:38.849Z,19.21
2019-05-13T06:25:42.545Z,20.12
2019-05-13T06:26:42.037Z,21.15
2019-05-13T06:27:43.019Z,21.81
2019-05-13T06:28:44.426Z,22.30
2019-05-13T06:29:48.855Z,23.00
2019-05-13T06:30:47.217Z,23.52
2019-05-13T06:31:48.632Z,24.33
2019-05-13T06:32:52.312Z,24.98
2019-05-13T06:33:51.578Z,25.42
2019-05-13T06:34:52.791Z,25.67
2019-05-13T06:35:54.200Z,25.38
2019-05-13T06:36:55.606Z,25.59
2019-05-13T06:37:57.044Z,24.82
2019-05-13T06:38:58.458Z,24.00
2019-05-13T06:40:01.696Z,23.54
2019-05-13T06:41:06.704Z,23.67
2019-05-13T06:42:03.084Z,24.15
2019-05-13T06:43:04.029Z,24.39
2019-05-13T06:44:05.428Z,23.50
2019-05-13T06:45:06.833Z,22.08
2019-05-13T06:46:08.288Z,20.93
2019-05-13T06:47:11.428Z,20.13
2019-05-13T06:48:11.779Z,20.15
2019-05-13T06:49:12.471Z,20.20
2019-05-13T06:50:13.879Z,20.35
2019-05-13T06:51:15.298Z,20.83
2019-05-13T06:52:16.723Z,20.83
2019-05-13T06:53:18.143Z,21.36
2019-05-13T06:54:21.737Z,21.91
2019-05-13T06:55:21.277Z,21.45
2019-05-13T06:56:22.367Z,21.68
2019-05-13T06:57:23.770Z,22.38
2019-05-13T06:58:25.185Z,23.38
2019-05-13T06:59:26.596Z,23.96
2019-05-13T07:00:28.000Z,24.11
2019-05-13T07:01:29.418Z,23.84
2019-05-13T07:02:32.117Z,23.93
2019-05-13T07:03:32.343Z,24.30
2019-05-13T07:04:33.566Z,24.86
2019-05-13T07:05:34.998Z,26.04
2019-05-13T07:06:36.421Z,26.78
2019-05-13T07:07:37.841Z,27.83
2019-05-13T07:08:41.455Z,28.24
2019-05-13T07:09:42.459Z,28.51
2019-05-13T07:10:42.002Z,28.05
2019-05-13T07:11:43.437Z,27.65
2019-05-13T07:12:44.834Z,27.77
2019-05-13T07:13:46.249Z,27.83
2019-05-13T07:14:47.657Z,27.02
2019-05-13T07:15:49.071Z,26.75
2019-05-13T07:16:52.154Z,27.11
2019-05-13T07:17:52.046Z,27.62
2019-05-13T07:18:53.229Z,27.68
2019-05-13T07:19:54.635Z,27.61
2019-05-13T07:20:56.056Z,27.06
2019-05-13T07:21:57.472Z,27.49
2019-05-13T07:23:01.431Z,28.02
2019-05-13T07:24:02.002Z,28.69
2019-05-13T07:25:02.643Z,29.05
2019-05-13T07:26:03.016Z,29.60
2019-05-13T07:27:04.438Z,30.11
2019-05-13T07:28:05.849Z,30.66
2019-05-13T07:29:07.777Z,30.32
2019-05-13T07:30:11.126Z,30.42
2019-05-13T07:31:11.581Z,30.38
2019-05-13T07:32:11.951Z,30.32
2019-05-13T07:33:12.997Z,30.06
2019-05-13T07:34:14.245Z,29.07
2019-05-13T07:35:15.748Z,28.36
2019-05-13T07:36:17.152Z,28.20
2019-05-13T07:37:18.580Z,28.64
2019-05-13T07:38:22.033Z,28.72
2019-05-13T07:39:22.370Z,28.28
2019-05-13T07:40:22.784Z,28.51
2019-05-13T07:41:35.611Z,28.06
2019-05-13T07:42:25.634Z,27.45
2019-05-13T07:43:27.058Z,26.94
2019-05-13T07:44:28.469Z,27.27
2019-05-13T07:45:31.584Z,27.61
2019-05-13T07:46:32.243Z,27.15
2019-05-13T07:47:32.796Z,26.69
2019-05-13T07:48:34.219Z,25.67
2019-05-13T07:49:35.860Z,25.81
2019-05-13T07:50:51.251Z,25.90
2019-05-13T07:51:38.789Z,26.68
2019-05-13T07:52:41.995Z,26.59
2019-05-13T07:53:42.570Z,26.36
2019-05-13T07:54:42.960Z,26.01
2019-05-13T07:55:44.378Z,26.41
2019-05-13T07:56:46.180Z,26.56
2019-05-13T07:57:47.625Z,27.11
2019-05-13T07:58:49.119Z,27.59
2019-05-13T07:59:52.208Z,27.46
2019-05-13T08:00:52.125Z,27.23
2019-05-13T08:01:53.276Z,28.02
2019-05-13T08:02:55.499Z,28.11
2019-05-13T08:03:56.908Z,28.01
2019-05-13T08:04:58.488Z,28.14
2019-05-13T08:06:01.769Z,28.45
2019-05-13T08:07:01.962Z,28.87
2019-05-13T08:08:02.789Z,28.83
2019-05-13T08:09:04.204Z,28.14
2019-05-13T08:10:05.619Z,26.51
2019-05-13T08:11:07.060Z,25.82
2019-05-13T08:12:10.996Z,24.83
2019-05-13T08:13:11.675Z,23.81
2019-05-13T08:14:12.345Z,22.67
2019-05-13T08:15:12.712Z,22.27
2019-05-13T08:16:14.174Z,21.46
2019-05-13T08:17:15.844Z,21.13
2019-05-13T08:18:16.971Z,20.37
2019-05-13T08:19:18.380Z,19.97
2019-05-13T08:20:21.886Z,19.70
2019-05-13T08:21:21.493Z,19.70
2019-05-13T08:22:22.553Z,19.49
2019-05-13T08:23:23.978Z,19.40
2019-05-13T08:24:25.389Z,19.13
2019-05-13T08:25:26.802Z,18.78
2019-05-13T08:26:28.248Z,18.49
2019-05-13T08:27:30.785Z,18.17
2019-05-13T08:28:32.350Z,18.13
2019-05-13T08:29:32.873Z,17.80
2019-05-13T08:30:33.818Z,17.83
2019-05-13T08:31:35.207Z,18.04
2019-05-13T08:32:36.612Z,17.86
2019-05-13T08:33:38.054Z,17.94
2019-05-13T08:34:41.521Z,17.84
2019-05-13T08:35:41.738Z,17.81
2019-05-13T08:36:42.621Z,17.54
2019-05-13T08:37:43.608Z,17.39
2019-05-13T08:38:45.083Z,17.32
2019-05-13T08:39:46.409Z,17.33
2019-05-13T08:40:47.841Z,17.43
2019-05-13T08:41:51.398Z,17.51
2019-05-13T08:42:52.054Z,17.65
2019-05-13T08:43:52.387Z,17.68
2019-05-13T08:44:53.591Z,17.63
2019-05-13T08:45:55.829Z,17.66
2019-05-13T08:46:56.399Z,17.86
2019-05-13T08:47:57.811Z,18.01
2019-05-13T08:48:59.235Z,18.17
2019-05-13T08:50:03.886Z,18.13
2019-05-13T08:51:03.010Z,17.96
2019-05-13T08:52:03.376Z,17.91
2019-05-13T08:53:04.786Z,17.99
2019-05-13T08:54:06.190Z,18.05
2019-05-13T08:55:07.595Z,18.10
2019-05-13T08:56:09.000Z,17.96
2019-05-13T08:57:11.812Z,17.81
2019-05-13T08:58:12.436Z,17.76
2019-05-13T08:59:13.188Z,17.74
2019-05-13T09:00:14.616Z,17.68
2019-05-13T09:01:16.019Z,17.62
2019-05-13T09:02:17.424Z,17.53
2019-05-13T09:03:21.317Z,17.35
2019-05-13T09:04:22.114Z,17.24
2019-05-13T09:05:21.622Z,17.03
2019-05-13T09:06:23.045Z,16.99
2019-05-13T09:07:24.571Z,16.99
2019-05-13T09:08:25.831Z,16.99
2019-05-13T09:09:27.347Z,17.32
2019-05-13T09:10:28.749Z,17.40
2019-05-13T09:11:31.524Z,17.18
2019-05-13T09:12:35.621Z,16.99
2019-05-13T09:13:33.224Z,16.92
2019-05-13T09:14:34.273Z,16.80
2019-05-13T09:15:35.712Z,16.84
2019-05-13T09:16:37.107Z,17.02
2019-05-13T09:17:38.521Z,17.12
2019-05-13T09:18:42.422Z,17.38
2019-05-13T09:19:41.561Z,17.65
2019-05-13T09:20:42.699Z,17.84
2019-05-13T09:21:44.106Z,18.01
2019-05-13T09:22:45.514Z,18.05
2019-05-13T09:23:46.918Z,17.84
2019-05-13T09:24:48.327Z,17.81
2019-05-13T09:25:51.851Z,17.51
2019-05-13T09:26:52.731Z,17.36
2019-05-13T09:27:52.464Z,17.15
2019-05-13T09:28:53.908Z,17.02
2019-05-13T09:29:55.359Z,16.87
2019-05-13T09:30:56.760Z,16.66
2019-05-13T09:31:58.166Z,16.62
2019-05-13T09:33:01.821Z,16.69
2019-05-13T09:34:01.431Z,16.81
2019-05-13T09:35:03.052Z,16.80
2019-05-13T09:36:03.694Z,16.96
2019-05-13T09:37:05.106Z,17.18
2019-05-13T09:38:06.517Z,17.27
2019-05-13T09:39:07.923Z,17.33
2019-05-13T09:40:11.330Z,17.36
2019-05-13T09:41:12.350Z,17.22
2019-05-13T09:42:12.642Z,17.21
2019-05-13T09:43:13.559Z,17.30
2019-05-13T09:44:14.993Z,17.30
2019-05-13T09:45:16.409Z,17.38
2019-05-13T09:46:17.803Z,17.35
2019-05-13T09:47:21.529Z,17.51
2019-05-13T09:48:22.434Z,17.77
2019-05-13T09:49:23.643Z,18.02
2019-05-13T09:50:31.470Z,17.96
2019-05-13T09:51:24.663Z,18.16
2019-05-13T09:52:26.066Z,18.16
2019-05-13T09:53:27.464Z,18.04
2019-05-13T09:54:32.217Z,17.87
2019-05-13T09:55:32.306Z,17.60
2019-05-13T09:57:32.961Z,17.36
2019-05-13T09:58:34.366Z,17.20
2019-05-13T09:59:35.770Z,17.00
2019-05-13T10:00:37.178Z,16.80
2019-05-13T10:01:38.577Z,16.73
2019-05-13T10:02:42.332Z,16.52
2019-05-13T10:03:53.975Z,16.82
2019-05-13T10:04:43.704Z,17.32
2019-05-13T10:05:44.084Z,17.99
2019-05-13T10:06:45.494Z,18.69
2019-05-13T10:07:46.897Z,19.35
2019-05-13T10:08:48.308Z,19.75
2019-05-13T10:09:51.797Z,20.12
2019-05-13T10:10:52.686Z,20.15
2019-05-13T10:11:52.429Z,20.38
2019-05-13T10:13:08.165Z,20.35
2019-05-13T10:13:55.306Z,20.44
2019-05-13T10:14:56.702Z,20.58
2019-05-13T10:15:58.104Z,20.60
2019-05-13T10:16:59.514Z,20.76
2019-05-13T10:18:01.795Z,20.35
2019-05-13T10:19:02.758Z,19.95
2019-05-13T10:20:03.728Z,19.62
2019-05-13T10:21:05.121Z,19.49
2019-05-13T10:22:06.527Z,19.02
2019-05-13T10:23:07.930Z,18.66
2019-05-13T10:24:12.326Z,18.46
2019-05-13T10:25:12.009Z,18.36
2019-05-13T10:26:13.543Z,18.35
2019-05-13T10:27:13.463Z,18.34
2019-05-13T10:28:14.862Z,18.50
2019-05-13T10:29:16.260Z,18.59
2019-05-13T10:30:17.671Z,18.76
2019-05-13T10:31:19.067Z,18.89
2019-05-13T10:32:21.937Z,19.07
2019-05-13T10:33:22.290Z,19.10
2019-05-13T10:34:23.522Z,19.21
2019-05-13T10:35:24.887Z,19.25
2019-05-13T10:36:26.292Z,19.47
2019-05-13T10:37:27.705Z,19.38
2019-05-13T10:38:29.111Z,19.28
2019-05-13T10:39:30.509Z,19.45
2019-05-13T10:40:32.749Z,19.40
2019-05-13T10:41:33.469Z,19.70
2019-05-13T10:42:34.662Z,19.71
2019-05-13T10:43:40.063Z,19.87
2019-05-13T10:44:37.441Z,19.75
2019-05-13T10:45:41.142Z,19.65
2019-05-13T10:46:42.658Z,19.40
2019-05-13T10:47:42.302Z,19.12
2019-05-13T10:48:42.930Z,18.79
2019-05-13T10:49:44.391Z,18.69
2019-05-13T10:50:45.777Z,18.50
2019-05-13T10:51:47.183Z,18.34
2019-05-13T10:52:48.673Z,18.10
2019-05-13T10:53:52.769Z,18.13
2019-05-13T10:54:52.742Z,18.26
2019-05-13T10:55:52.768Z,18.35
2019-05-13T10:56:59.123Z,18.47
2019-05-13T10:57:55.598Z,18.57
2019-05-13T10:58:56.997Z,18.71
2019-05-13T11:00:00.532Z,18.82
2019-05-13T11:01:02.683Z,18.83
2019-05-13T11:02:02.258Z,18.89
2019-05-13T11:03:02.628Z,19.10
2019-05-13T11:04:04.035Z,19.30
2019-05-13T11:05:05.486Z,19.49
2019-05-13T11:06:06.901Z,19.85
2019-05-13T11:07:08.307Z,19.92
2019-05-13T11:08:09.717Z,19.85
2019-05-13T11:09:12.945Z,20.15
2019-05-13T11:10:13.265Z,20.37
2019-05-13T11:11:13.921Z,20.22
2019-05-13T11:12:15.359Z,19.95
2019-05-13T11:13:16.811Z,19.53
2019-05-13T11:14:18.215Z,19.35
2019-05-13T11:15:19.620Z,18.94
2019-05-13T11:16:22.530Z,18.87
2019-05-13T11:17:30.329Z,19.42
2019-05-13T11:18:24.462Z,20.12
2019-05-13T11:19:25.240Z,21.12
2019-05-13T11:20:26.676Z,21.93
2019-05-13T11:21:28.060Z,22.85
2019-05-13T11:22:29.522Z,23.63
2019-05-13T11:23:32.197Z,23.96
2019-05-13T11:24:32.704Z,24.39
2019-05-13T11:25:33.784Z,24.68
2019-05-13T11:26:36.369Z,24.33
2019-05-13T11:27:36.564Z,23.32
2019-05-13T11:28:37.964Z,22.51
2019-05-13T11:29:41.428Z,21.90
2019-05-13T11:30:42.357Z,21.27
2019-05-13T11:31:42.805Z,21.51
2019-05-13T11:32:43.516Z,22.29
2019-05-13T11:33:45.445Z,22.23
2019-05-13T11:34:46.844Z,22.17
2019-05-13T11:35:48.266Z,21.94
2019-05-13T11:36:52.824Z,21.22
2019-05-13T11:37:52.199Z,21.63
2019-05-13T11:38:53.262Z,21.96
2019-05-13T11:39:53.809Z,22.60
2019-05-13T11:40:55.256Z,23.26
2019-05-13T11:41:56.694Z,23.57
2019-05-13T11:42:58.109Z,24.55
2019-05-13T11:45:00.889Z,23.99
2019-05-13T11:46:02.549Z,23.16
2019-05-13T11:47:03.717Z,22.35
2019-05-13T11:48:05.176Z,21.71
2019-05-13T11:49:06.550Z,21.59
2019-05-13T11:50:07.964Z,21.89
2019-05-13T11:51:12.804Z,22.45
2019-05-13T11:52:11.902Z,23.07
2019-05-13T11:53:31.437Z,23.44
2019-05-13T11:54:13.846Z,23.47
2019-05-13T11:55:14.907Z,23.84
2019-05-13T11:56:16.330Z,24.26
2019-05-13T11:57:17.739Z,24.14
2019-05-13T11:58:19.173Z,24.77
2019-05-13T11:59:22.056Z,24.99
2019-05-13T12:00:21.932Z,24.46
2019-05-13T12:01:24.321Z,23.69
2019-05-13T12:02:25.725Z,22.97
2019-05-13T12:03:27.133Z,22.26
2019-05-13T12:04:28.551Z,22.08
2019-05-13T12:05:32.656Z,22.39
2019-05-13T12:06:33.927Z,22.51
2019-05-13T12:07:33.097Z,22.09
2019-05-13T12:08:34.517Z,21.51
2019-05-13T12:09:35.609Z,20.96
2019-05-13T12:10:37.014Z,19.90
2019-05-13T12:11:38.499Z,19.49
2019-05-13T12:12:43.307Z,19.47
2019-05-13T12:13:42.600Z,20.02
2019-05-13T12:14:56.958Z,20.72
2019-05-13T12:15:49.434Z,21.00
2019-05-13T12:16:45.484Z,21.75
2019-05-13T12:17:46.896Z,21.79
2019-05-13T12:18:48.348Z,21.77
2019-05-13T12:19:49.749Z,21.64
2019-05-13T12:20:53.963Z,21.49
2019-05-13T12:21:54.147Z,21.22
2019-05-13T12:22:53.927Z,20.87
2019-05-13T12:23:55.374Z,20.40
2019-05-13T12:24:56.742Z,20.16
2019-05-13T12:25:58.143Z,20.01
2019-05-13T12:27:03.213Z,20.00
2019-05-13T12:28:03.306Z,19.87
2019-05-13T12:29:02.749Z,19.98
2019-05-13T12:30:03.748Z,20.37
2019-05-13T12:31:05.153Z,20.35
2019-05-13T12:32:06.569Z,20.26
2019-05-13T12:33:07.967Z,20.00
2019-05-13T12:34:12.707Z,19.53
2019-05-13T12:35:13.347Z,18.89
2019-05-13T12:36:17.760Z,18.68
2019-05-13T12:37:13.481Z,18.46
2019-05-13T12:38:14.923Z,18.20
2019-05-13T12:39:16.299Z,17.96
2019-05-13T12:40:17.709Z,17.99
2019-05-13T12:41:19.107Z,18.41
2019-05-13T12:42:23.482Z,18.86
2019-05-13T12:43:24.072Z,19.15
2019-05-13T12:44:23.347Z,19.06
2019-05-13T12:45:24.689Z,19.06
2019-05-13T12:46:26.094Z,18.78
2019-05-13T12:47:27.496Z,18.54
2019-05-13T12:48:28.898Z,18.41
2019-05-13T12:49:33.622Z,18.25
2019-05-13T12:50:32.913Z,17.95
2019-05-13T12:51:33.018Z,18.20
2019-05-13T12:52:34.440Z,18.56
2019-05-13T12:53:35.859Z,18.82
2019-05-13T12:54:37.233Z,19.15
2019-05-13T12:55:38.630Z,19.15
2019-05-13T12:56:42.351Z,19.07
2019-05-13T12:57:41.394Z,19.17
2019-05-13T12:58:42.869Z,19.30
2019-05-13T12:59:44.292Z,19.34
2019-05-13T13:00:45.699Z,19.31
2019-05-13T13:01:47.094Z,19.21
2019-05-13T13:03:49.899Z,18.94
2019-05-13T13:05:08.865Z,19.02
2019-05-13T13:05:52.715Z,19.12
2019-05-13T13:06:54.125Z,19.16
2019-05-13T13:08:16.749Z,19.24
2019-05-13T13:08:56.896Z,19.30
2019-05-13T13:09:58.302Z,19.32
2019-05-13T13:10:59.806Z,19.21
2019-05-13T13:12:01.251Z,19.01
2019-05-13T13:13:02.440Z,18.57
2019-05-13T13:14:06.085Z,18.50
2019-05-13T13:15:32.039Z,18.49
2019-05-13T13:16:06.622Z,18.34
2019-05-13T13:17:08.134Z,18.38
2019-05-13T13:18:13.925Z,18.34
2019-05-13T13:19:14.142Z,18.35
2019-05-13T13:20:14.961Z,18.44
2019-05-13T13:21:14.606Z,18.51
2019-05-13T13:22:15.071Z,18.53
2019-05-13T13:23:16.488Z,18.56
2019-05-13T13:24:17.883Z,18.51
2019-05-13T13:25:23.554Z,18.50